sensor_id;sensor_type;location;lat;lon;timestamp;temperature;humidity
14192;DHT22;7177;48.572;7.838;2022-10-16T00:02:24;15.90;99.90
14192;DHT22;7177;48.572;7.838;2022-10-16T00:04:50;16.00;99.90
14192;DHT22;7177;48.572;7.838;2022-10-16T00:07:15;16.00;99.90
14192;DHT22;7177;48.572;7.838;2022-10-16T00:09:41;16.00;99.90
14192;DHT22;7177;48.572;7.838;2022-10-16T00:12:06;16.00;99.90
14192;DHT22;7177;48.572;7.838;2022-10-16T00:14:32;16.00;99.90
14192;DHT22;7177;48.572;7.838;2022-10-16T00:16:58;16.00;99.90
14192;DHT22;7177;48.572;7.838;2022-10-16T00:19:23;16.00;99.90
14192;DHT22;7177;48.572;7.838;2022-10-16T00:21:49;16.00;99.90
14192;DHT22;7177;48.572;7.838;2022-10-16T00:24:14;16.00;99.90
14192;DHT22;7177;48.572;7.838;2022-10-16T00:26:40;16.00;99.90
14192;DHT22;7177;48.572;7.838;2022-10-16T00:29:06;16.00;99.90
14192;DHT22;7177;48.572;7.838;2022-10-16T00:31:32;16.00;99.90
14192;DHT22;7177;48.572;7.838;2022-10-16T00:33:57;16.00;99.90
14192;DHT22;7177;48.572;7.838;2022-10-16T00:36:25;16.00;99.90
14192;DHT22;7177;48.572;7.838;2022-10-16T00:38:52;16.00;99.90
14192;DHT22;7177;48.572;7.838;2022-10-16T00:41:19;16.00;99.90
14192;DHT22;7177;48.572;7.838;2022-10-16T00:43:56;16.00;99.90
14192;DHT22;7177;48.572;7.838;2022-10-16T00:46:35;16.00;99.90
14192;DHT22;7177;48.572;7.838;2022-10-16T00:49:16;16.00;99.90
14192;DHT22;7177;48.572;7.838;2022-10-16T00:51:45;16.00;99.90
14192;DHT22;7177;48.572;7.838;2022-10-16T00:54:16;16.00;99.90
14192;DHT22;7177;48.572;7.838;2022-10-16T00:56:44;16.00;99.90
14192;DHT22;7177;48.572;7.838;2022-10-16T00:59:18;16.00;99.90
14192;DHT22;7177;48.572;7.838;2022-10-16T01:01:44;16.00;99.90
14192;DHT22;7177;48.572;7.838;2022-10-16T01:04:10;16.00;99.90
14192;DHT22;7177;48.572;7.838;2022-10-16T01:06:42;16.00;99.90
14192;DHT22;7177;48.572;7.838;2022-10-16T01:09:18;16.00;99.90
14192;DHT22;7177;48.572;7.838;2022-10-16T01:11:54;15.90;99.90
14192;DHT22;7177;48.572;7.838;2022-10-16T01:14:48;16.00;99.90
14192;DHT22;7177;48.572;7.838;2022-10-16T01:17:38;15.90;99.90
14192;DHT22;7177;48.572;7.838;2022-10-16T01:23:06;16.00;99.90
14192;DHT22;7177;48.572;7.838;2022-10-16T01:25:49;16.00;99.90
14192;DHT22;7177;48.572;7.838;2022-10-16T01:28:21;15.90;99.90
14192;DHT22;7177;48.572;7.838;2022-10-16T01:30:51;16.00;99.90
14192;DHT22;7177;48.572;7.838;2022-10-16T01:33:21;16.00;99.90
14192;DHT22;7177;48.572;7.838;2022-10-16T01:35:52;15.90;99.90
14192;DHT22;7177;48.572;7.838;2022-10-16T01:38:29;15.90;99.90
14192;DHT22;7177;48.572;7.838;2022-10-16T01:41:09;15.90;99.90
14192;DHT22;7177;48.572;7.838;2022-10-16T01:43:42;15.90;99.90
14192;DHT22;7177;48.572;7.838;2022-10-16T01:46:09;15.90;99.90
14192;DHT22;7177;48.572;7.838;2022-10-16T01:48:36;15.90;99.90
14192;DHT22;7177;48.572;7.838;2022-10-16T01:51:12;15.80;99.90
14192;DHT22;7177;48.572;7.838;2022-10-16T01:53:40;15.80;99.90
14192;DHT22;7177;48.572;7.838;2022-10-16T01:56:10;15.80;99.90
14192;DHT22;7177;48.572;7.838;2022-10-16T01:58:42;15.80;99.90
14192;DHT22;7177;48.572;7.838;2022-10-16T02:01:10;15.80;99.90
14192;DHT22;7177;48.572;7.838;2022-10-16T02:03:40;15.80;99.90
14192;DHT22;7177;48.572;7.838;2022-10-16T02:06:07;15.80;99.90
14192;DHT22;7177;48.572;7.838;2022-10-16T02:08:33;15.80;99.90
14192;DHT22;7177;48.572;7.838;2022-10-16T02:11:00;15.70;99.90
14192;DHT22;7177;48.572;7.838;2022-10-16T02:13:48;15.70;99.90
14192;DHT22;7177;48.572;7.838;2022-10-16T02:16:15;15.70;99.90
14192;DHT22;7177;48.572;7.838;2022-10-16T02:18:42;15.70;99.90
14192;DHT22;7177;48.572;7.838;2022-10-16T02:24:47;15.60;99.90
14192;DHT22;7177;48.572;7.838;2022-10-16T02:29:24;15.60;99.90
14192;DHT22;7177;48.572;7.838;2022-10-16T02:31:54;15.60;99.90
14192;DHT22;7177;48.572;7.838;2022-10-16T02:34:21;15.60;99.90
14192;DHT22;7177;48.572;7.838;2022-10-16T02:36:50;15.60;99.90
14192;DHT22;7177;48.572;7.838;2022-10-16T02:39:17;15.60;99.90
14192;DHT22;7177;48.572;7.838;2022-10-16T02:41:43;15.60;99.90
14192;DHT22;7177;48.572;7.838;2022-10-16T02:44:09;15.60;99.90
14192;DHT22;7177;48.572;7.838;2022-10-16T02:46:34;15.60;99.90
14192;DHT22;7177;48.572;7.838;2022-10-16T02:49:00;15.60;99.90
14192;DHT22;7177;48.572;7.838;2022-10-16T02:51:25;15.60;99.90
14192;DHT22;7177;48.572;7.838;2022-10-16T02:53:51;15.60;99.90
14192;DHT22;7177;48.572;7.838;2022-10-16T02:56:16;15.60;99.90
14192;DHT22;7177;48.572;7.838;2022-10-16T02:58:42;15.60;99.90
14192;DHT22;7177;48.572;7.838;2022-10-16T03:01:08;15.60;99.90
14192;DHT22;7177;48.572;7.838;2022-10-16T03:03:33;15.60;99.90
14192;DHT22;7177;48.572;7.838;2022-10-16T03:05:59;15.60;99.90
14192;DHT22;7177;48.572;7.838;2022-10-16T03:08:24;15.60;99.90
14192;DHT22;7177;48.572;7.838;2022-10-16T03:10:51;15.60;99.90
14192;DHT22;7177;48.572;7.838;2022-10-16T03:13:17;15.60;99.90
14192;DHT22;7177;48.572;7.838;2022-10-16T03:15:43;15.60;99.90
14192;DHT22;7177;48.572;7.838;2022-10-16T03:18:09;15.60;99.90
14192;DHT22;7177;48.572;7.838;2022-10-16T03:20:34;15.60;99.90
14192;DHT22;7177;48.572;7.838;2022-10-16T03:23:00;15.60;99.90
14192;DHT22;7177;48.572;7.838;2022-10-16T03:25:25;15.60;99.90
14192;DHT22;7177;48.572;7.838;2022-10-16T03:27:51;15.60;99.90
14192;DHT22;7177;48.572;7.838;2022-10-16T03:30:17;15.60;99.90
14192;DHT22;7177;48.572;7.838;2022-10-16T03:32:44;15.60;99.90
14192;DHT22;7177;48.572;7.838;2022-10-16T03:35:10;15.60;99.90
14192;DHT22;7177;48.572;7.838;2022-10-16T03:37:35;15.50;99.90
14192;DHT22;7177;48.572;7.838;2022-10-16T03:40:02;15.50;99.90
14192;DHT22;7177;48.572;7.838;2022-10-16T03:42:28;15.50;99.90
14192;DHT22;7177;48.572;7.838;2022-10-16T03:44:54;15.50;99.90
14192;DHT22;7177;48.572;7.838;2022-10-16T03:47:19;15.50;99.90
14192;DHT22;7177;48.572;7.838;2022-10-16T03:49:47;15.50;99.90
14192;DHT22;7177;48.572;7.838;2022-10-16T03:52:13;15.50;99.90
14192;DHT22;7177;48.572;7.838;2022-10-16T03:54:38;15.40;99.90
14192;DHT22;7177;48.572;7.838;2022-10-16T03:57:04;15.40;99.90
14192;DHT22;7177;48.572;7.838;2022-10-16T03:59:29;15.40;99.90
14192;DHT22;7177;48.572;7.838;2022-10-16T04:01:55;15.40;99.90
14192;DHT22;7177;48.572;7.838;2022-10-16T04:04:20;15.30;99.90
14192;DHT22;7177;48.572;7.838;2022-10-16T04:06:46;15.30;99.90
14192;DHT22;7177;48.572;7.838;2022-10-16T04:09:12;15.30;99.90
14192;DHT22;7177;48.572;7.838;2022-10-16T04:11:37;15.20;99.90
14192;DHT22;7177;48.572;7.838;2022-10-16T04:14:03;15.20;99.90
14192;DHT22;7177;48.572;7.838;2022-10-16T04:16:28;15.20;99.90
14192;DHT22;7177;48.572;7.838;2022-10-16T04:18:54;15.20;99.90
14192;DHT22;7177;48.572;7.838;2022-10-16T04:21:19;15.10;99.90
14192;DHT22;7177;48.572;7.838;2022-10-16T04:23:45;15.10;99.90
14192;DHT22;7177;48.572;7.838;2022-10-16T04:26:12;15.10;99.90
14192;DHT22;7177;48.572;7.838;2022-10-16T04:28:37;15.00;99.90
14192;DHT22;7177;48.572;7.838;2022-10-16T04:31:06;15.00;99.90
14192;DHT22;7177;48.572;7.838;2022-10-16T04:33:32;15.00;99.90
14192;DHT22;7177;48.572;7.838;2022-10-16T04:35:59;15.00;99.90
14192;DHT22;7177;48.572;7.838;2022-10-16T04:38:25;15.00;99.90
14192;DHT22;7177;48.572;7.838;2022-10-16T04:40:51;15.00;99.90
14192;DHT22;7177;48.572;7.838;2022-10-16T04:43:17;15.00;99.90
14192;DHT22;7177;48.572;7.838;2022-10-16T04:45:42;15.00;99.90
14192;DHT22;7177;48.572;7.838;2022-10-16T04:48:08;14.90;99.90
14192;DHT22;7177;48.572;7.838;2022-10-16T04:50:33;14.90;99.90
14192;DHT22;7177;48.572;7.838;2022-10-16T04:52:59;14.90;99.90
14192;DHT22;7177;48.572;7.838;2022-10-16T04:55:24;14.90;99.90
14192;DHT22;7177;48.572;7.838;2022-10-16T04:57:50;14.90;99.90
14192;DHT22;7177;48.572;7.838;2022-10-16T05:00:15;14.90;99.90
14192;DHT22;7177;48.572;7.838;2022-10-16T05:02:41;14.90;99.90
14192;DHT22;7177;48.572;7.838;2022-10-16T05:05:07;14.90;99.90
14192;DHT22;7177;48.572;7.838;2022-10-16T05:07:32;14.90;99.90
14192;DHT22;7177;48.572;7.838;2022-10-16T05:09:58;14.90;99.90
14192;DHT22;7177;48.572;7.838;2022-10-16T05:12:23;14.90;99.90
14192;DHT22;7177;48.572;7.838;2022-10-16T05:14:49;14.90;99.90
14192;DHT22;7177;48.572;7.838;2022-10-16T05:17:14;14.90;99.90
14192;DHT22;7177;48.572;7.838;2022-10-16T05:19:40;14.90;99.90
14192;DHT22;7177;48.572;7.838;2022-10-16T05:22:05;14.90;99.90
14192;DHT22;7177;48.572;7.838;2022-10-16T05:24:31;14.90;99.90
14192;DHT22;7177;48.572;7.838;2022-10-16T05:26:56;14.90;99.90
14192;DHT22;7177;48.572;7.838;2022-10-16T05:29:22;14.90;99.90
14192;DHT22;7177;48.572;7.838;2022-10-16T05:31:50;14.90;99.90
14192;DHT22;7177;48.572;7.838;2022-10-16T05:34:17;14.90;99.90
14192;DHT22;7177;48.572;7.838;2022-10-16T05:36:42;14.90;99.90
14192;DHT22;7177;48.572;7.838;2022-10-16T05:39:10;14.90;99.90
14192;DHT22;7177;48.572;7.838;2022-10-16T05:41:36;14.90;99.90
14192;DHT22;7177;48.572;7.838;2022-10-16T05:44:04;14.90;99.90
14192;DHT22;7177;48.572;7.838;2022-10-16T05:46:30;14.90;99.90
14192;DHT22;7177;48.572;7.838;2022-10-16T05:48:55;14.90;99.90
14192;DHT22;7177;48.572;7.838;2022-10-16T05:51:21;14.90;99.90
14192;DHT22;7177;48.572;7.838;2022-10-16T05:53:46;14.90;99.90
14192;DHT22;7177;48.572;7.838;2022-10-16T05:56:12;15.00;99.90
14192;DHT22;7177;48.572;7.838;2022-10-16T05:58:38;15.00;99.90
14192;DHT22;7177;48.572;7.838;2022-10-16T06:01:25;15.10;99.90
14192;DHT22;7177;48.572;7.838;2022-10-16T06:03:52;15.20;99.90
14192;DHT22;7177;48.572;7.838;2022-10-16T06:06:20;15.20;99.90
14192;DHT22;7177;48.572;7.838;2022-10-16T06:08:47;15.20;99.90
14192;DHT22;7177;48.572;7.838;2022-10-16T06:11:17;15.20;99.90
14192;DHT22;7177;48.572;7.838;2022-10-16T06:13:43;15.20;99.90
14192;DHT22;7177;48.572;7.838;2022-10-16T06:16:12;15.20;99.90
14192;DHT22;7177;48.572;7.838;2022-10-16T06:18:37;15.20;99.90
14192;DHT22;7177;48.572;7.838;2022-10-16T06:21:17;15.20;99.90
14192;DHT22;7177;48.572;7.838;2022-10-16T06:23:43;15.20;99.90
14192;DHT22;7177;48.572;7.838;2022-10-16T06:26:10;15.20;99.90
14192;DHT22;7177;48.572;7.838;2022-10-16T06:28:37;15.30;99.90
14192;DHT22;7177;48.572;7.838;2022-10-16T06:31:04;15.30;99.90
14192;DHT22;7177;48.572;7.838;2022-10-16T06:33:30;15.30;99.90
14192;DHT22;7177;48.572;7.838;2022-10-16T06:38:31;15.30;99.90
14192;DHT22;7177;48.572;7.838;2022-10-16T06:40:57;15.30;99.90
14192;DHT22;7177;48.572;7.838;2022-10-16T06:43:23;15.30;99.90
14192;DHT22;7177;48.572;7.838;2022-10-16T06:45:53;15.30;99.90
14192;DHT22;7177;48.572;7.838;2022-10-16T06:48:19;15.30;99.90
14192;DHT22;7177;48.572;7.838;2022-10-16T06:50:56;15.30;99.90
14192;DHT22;7177;48.572;7.838;2022-10-16T06:53:22;15.40;99.90
14192;DHT22;7177;48.572;7.838;2022-10-16T06:55:47;15.40;99.90
14192;DHT22;7177;48.572;7.838;2022-10-16T06:58:13;15.40;99.90
14192;DHT22;7177;48.572;7.838;2022-10-16T07:00:38;15.40;99.90
14192;DHT22;7177;48.572;7.838;2022-10-16T07:03:04;15.40;99.90
14192;DHT22;7177;48.572;7.838;2022-10-16T07:05:29;15.40;99.90
14192;DHT22;7177;48.572;7.838;2022-10-16T07:07:55;15.40;99.90
14192;DHT22;7177;48.572;7.838;2022-10-16T07:10:20;15.40;99.90
14192;DHT22;7177;48.572;7.838;2022-10-16T07:12:49;15.50;99.90
14192;DHT22;7177;48.572;7.838;2022-10-16T07:15:15;15.40;99.90
14192;DHT22;7177;48.572;7.838;2022-10-16T07:17:40;15.50;99.90
14192;DHT22;7177;48.572;7.838;2022-10-16T07:20:06;15.50;99.90
14192;DHT22;7177;48.572;7.838;2022-10-16T07:22:32;15.50;99.90
14192;DHT22;7177;48.572;7.838;2022-10-16T07:24:58;15.40;99.90
14192;DHT22;7177;48.572;7.838;2022-10-16T07:29:50;15.40;99.90
14192;DHT22;7177;48.572;7.838;2022-10-16T07:32:15;15.50;99.90
14192;DHT22;7177;48.572;7.838;2022-10-16T07:34:41;15.50;99.90
14192;DHT22;7177;48.572;7.838;2022-10-16T07:37:07;15.60;99.90
14192;DHT22;7177;48.572;7.838;2022-10-16T07:39:33;15.60;99.90
14192;DHT22;7177;48.572;7.838;2022-10-16T07:41:58;15.60;99.90
14192;DHT22;7177;48.572;7.838;2022-10-16T07:44:24;15.60;99.90
14192;DHT22;7177;48.572;7.838;2022-10-16T07:46:49;15.70;99.90
14192;DHT22;7177;48.572;7.838;2022-10-16T07:49:15;15.60;99.90
14192;DHT22;7177;48.572;7.838;2022-10-16T07:51:40;15.80;99.90
14192;DHT22;7177;48.572;7.838;2022-10-16T07:54:08;15.80;99.90
14192;DHT22;7177;48.572;7.838;2022-10-16T07:56:34;15.80;99.90
14192;DHT22;7177;48.572;7.838;2022-10-16T07:59:00;15.90;99.90
14192;DHT22;7177;48.572;7.838;2022-10-16T08:01:26;16.00;99.90
14192;DHT22;7177;48.572;7.838;2022-10-16T08:03:52;16.00;99.90
14192;DHT22;7177;48.572;7.838;2022-10-16T08:06:19;16.00;99.90
14192;DHT22;7177;48.572;7.838;2022-10-16T08:08:45;16.10;99.90
14192;DHT22;7177;48.572;7.838;2022-10-16T08:11:10;16.10;99.90
14192;DHT22;7177;48.572;7.838;2022-10-16T08:13:36;16.10;99.90
14192;DHT22;7177;48.572;7.838;2022-10-16T08:16:02;16.20;99.90
14192;DHT22;7177;48.572;7.838;2022-10-16T08:18:33;16.30;99.90
14192;DHT22;7177;48.572;7.838;2022-10-16T08:20:59;16.30;99.90
14192;DHT22;7177;48.572;7.838;2022-10-16T08:23:26;16.30;99.90
14192;DHT22;7177;48.572;7.838;2022-10-16T08:25:53;16.60;99.90
14192;DHT22;7177;48.572;7.838;2022-10-16T08:28:19;16.70;99.90
14192;DHT22;7177;48.572;7.838;2022-10-16T08:30:45;16.80;99.90
14192;DHT22;7177;48.572;7.838;2022-10-16T08:33:10;16.80;99.90
14192;DHT22;7177;48.572;7.838;2022-10-16T08:35:36;16.90;99.90
14192;DHT22;7177;48.572;7.838;2022-10-16T08:38:05;17.00;99.90
14192;DHT22;7177;48.572;7.838;2022-10-16T08:40:32;17.00;99.90
14192;DHT22;7177;48.572;7.838;2022-10-16T08:48:46;17.10;99.90
14192;DHT22;7177;48.572;7.838;2022-10-16T08:51:31;17.20;99.90
14192;DHT22;7177;48.572;7.838;2022-10-16T08:53:59;17.20;99.90
14192;DHT22;7177;48.572;7.838;2022-10-16T08:56:26;17.30;99.90
14192;DHT22;7177;48.572;7.838;2022-10-16T08:58:53;17.40;99.90
14192;DHT22;7177;48.572;7.838;2022-10-16T09:01:21;17.60;99.90
14192;DHT22;7177;48.572;7.838;2022-10-16T09:04:23;17.70;99.90
14192;DHT22;7177;48.572;7.838;2022-10-16T09:09:34;17.80;99.90
14192;DHT22;7177;48.572;7.838;2022-10-16T09:12:04;18.00;99.90
14192;DHT22;7177;48.572;7.838;2022-10-16T09:19:48;18.40;99.90
14192;DHT22;7177;48.572;7.838;2022-10-16T09:22:18;18.40;99.90
14192;DHT22;7177;48.572;7.838;2022-10-16T09:24:47;18.40;99.90
14192;DHT22;7177;48.572;7.838;2022-10-16T09:27:14;18.50;99.90
14192;DHT22;7177;48.572;7.838;2022-10-16T09:29:40;18.40;99.90
14192;DHT22;7177;48.572;7.838;2022-10-16T09:32:15;18.40;99.90
14192;DHT22;7177;48.572;7.838;2022-10-16T09:34:45;18.30;99.90
14192;DHT22;7177;48.572;7.838;2022-10-16T09:37:14;18.30;99.90
14192;DHT22;7177;48.572;7.838;2022-10-16T09:39:54;18.30;99.90
14192;DHT22;7177;48.572;7.838;2022-10-16T09:42:31;18.40;99.90
14192;DHT22;7177;48.572;7.838;2022-10-16T09:44:58;18.30;99.90
14192;DHT22;7177;48.572;7.838;2022-10-16T09:47:28;18.40;99.90
14192;DHT22;7177;48.572;7.838;2022-10-16T09:52:24;18.50;99.90
14192;DHT22;7177;48.572;7.838;2022-10-16T09:55:13;18.70;99.90
14192;DHT22;7177;48.572;7.838;2022-10-16T09:57:53;18.60;99.90
14192;DHT22;7177;48.572;7.838;2022-10-16T10:00:20;18.80;99.90
14192;DHT22;7177;48.572;7.838;2022-10-16T10:02:45;19.00;99.90
14192;DHT22;7177;48.572;7.838;2022-10-16T10:07:45;19.20;99.90
14192;DHT22;7177;48.572;7.838;2022-10-16T10:10:25;19.20;99.90
14192;DHT22;7177;48.572;7.838;2022-10-16T10:12:52;19.40;99.90
14192;DHT22;7177;48.572;7.838;2022-10-16T10:15:18;19.60;99.90
14192;DHT22;7177;48.572;7.838;2022-10-16T10:17:54;19.60;99.90
14192;DHT22;7177;48.572;7.838;2022-10-16T10:22:48;19.60;99.90
14192;DHT22;7177;48.572;7.838;2022-10-16T10:25:35;19.60;99.90
14192;DHT22;7177;48.572;7.838;2022-10-16T10:39:18;20.30;99.90
14192;DHT22;7177;48.572;7.838;2022-10-16T10:42:15;20.30;99.90
14192;DHT22;7177;48.572;7.838;2022-10-16T10:47:56;20.10;99.90
14192;DHT22;7177;48.572;7.838;2022-10-16T10:53:24;20.20;99.90
14192;DHT22;7177;48.572;7.838;2022-10-16T10:55:59;20.20;99.90
14192;DHT22;7177;48.572;7.838;2022-10-16T10:58:49;20.20;99.90
14192;DHT22;7177;48.572;7.838;2022-10-16T11:01:26;20.20;99.90
14192;DHT22;7177;48.572;7.838;2022-10-16T11:09:41;20.00;99.90
14192;DHT22;7177;48.572;7.838;2022-10-16T11:14:48;20.00;99.90
14192;DHT22;7177;48.572;7.838;2022-10-16T11:17:22;20.10;99.90
14192;DHT22;7177;48.572;7.838;2022-10-16T11:19:57;20.30;99.90
14192;DHT22;7177;48.572;7.838;2022-10-16T11:22:34;20.50;99.90
14192;DHT22;7177;48.572;7.838;2022-10-16T11:27:44;20.80;99.90
14192;DHT22;7177;48.572;7.838;2022-10-16T11:30:22;20.90;99.90
14192;DHT22;7177;48.572;7.838;2022-10-16T11:36:11;20.90;99.90
14192;DHT22;7177;48.572;7.838;2022-10-16T11:38:29;20.90;99.90
14192;DHT22;7177;48.572;7.838;2022-10-16T11:41:01;20.90;99.90
14192;DHT22;7177;48.572;7.838;2022-10-16T11:46:00;20.80;99.90
14192;DHT22;7177;48.572;7.838;2022-10-16T11:53:57;21.00;99.90
14192;DHT22;7177;48.572;7.838;2022-10-16T11:56:24;20.80;99.90
14192;DHT22;7177;48.572;7.838;2022-10-16T12:01:41;21.00;99.90
14192;DHT22;7177;48.572;7.838;2022-10-16T12:09:24;21.40;99.90
14192;DHT22;7177;48.572;7.838;2022-10-16T12:11:51;21.30;99.90
14192;DHT22;7177;48.572;7.838;2022-10-16T12:17:03;21.40;99.90
14192;DHT22;7177;48.572;7.838;2022-10-16T12:19:31;21.40;99.90
14192;DHT22;7177;48.572;7.838;2022-10-16T12:22:00;21.40;99.90
14192;DHT22;7177;48.572;7.838;2022-10-16T12:24:37;21.40;99.90
14192;DHT22;7177;48.572;7.838;2022-10-16T12:27:05;21.40;99.90
14192;DHT22;7177;48.572;7.838;2022-10-16T12:29:40;21.50;99.90
14192;DHT22;7177;48.572;7.838;2022-10-16T12:35:01;21.60;99.90
14192;DHT22;7177;48.572;7.838;2022-10-16T12:37:29;21.60;99.90
14192;DHT22;7177;48.572;7.838;2022-10-16T12:39:56;21.70;99.90
14192;DHT22;7177;48.572;7.838;2022-10-16T12:44:48;21.80;99.90
14192;DHT22;7177;48.572;7.838;2022-10-16T12:47:49;21.80;99.90
14192;DHT22;7177;48.572;7.838;2022-10-16T12:50:27;21.80;99.90
14192;DHT22;7177;48.572;7.838;2022-10-16T12:52:53;21.90;99.90
14192;DHT22;7177;48.572;7.838;2022-10-16T12:55:21;21.90;99.90
14192;DHT22;7177;48.572;7.838;2022-10-16T12:58:29;21.90;99.90
14192;DHT22;7177;48.572;7.838;2022-10-16T13:01:26;22.10;99.90
14192;DHT22;7177;48.572;7.838;2022-10-16T13:04:31;22.30;99.90
14192;DHT22;7177;48.572;7.838;2022-10-16T13:12:40;22.60;99.90
14192;DHT22;7177;48.572;7.838;2022-10-16T13:18:25;22.80;99.90
14192;DHT22;7177;48.572;7.838;2022-10-16T13:21:26;23.00;99.90
14192;DHT22;7177;48.572;7.838;2022-10-16T13:26:58;24.40;99.90
14192;DHT22;7177;48.572;7.838;2022-10-16T13:29:33;25.20;99.90
14192;DHT22;7177;48.572;7.838;2022-10-16T13:32:01;25.50;99.90
14192;DHT22;7177;48.572;7.838;2022-10-16T13:34:32;25.60;99.90
14192;DHT22;7177;48.572;7.838;2022-10-16T13:36:57;25.70;99.90
14192;DHT22;7177;48.572;7.838;2022-10-16T13:39:28;25.90;99.90
14192;DHT22;7177;48.572;7.838;2022-10-16T13:42:04;26.10;99.90
14192;DHT22;7177;48.572;7.838;2022-10-16T13:44:46;25.80;99.90
14192;DHT22;7177;48.572;7.838;2022-10-16T13:47:17;25.90;99.90
14192;DHT22;7177;48.572;7.838;2022-10-16T13:49:43;26.10;99.90
14192;DHT22;7177;48.572;7.838;2022-10-16T13:52:17;26.30;99.90
14192;DHT22;7177;48.572;7.838;2022-10-16T13:54:43;26.30;99.90
14192;DHT22;7177;48.572;7.838;2022-10-16T13:57:13;26.10;99.90
14192;DHT22;7177;48.572;7.838;2022-10-16T13:59:39;26.20;99.90
14192;DHT22;7177;48.572;7.838;2022-10-16T14:02:25;26.50;99.90
14192;DHT22;7177;48.572;7.838;2022-10-16T14:04:52;26.70;99.90
14192;DHT22;7177;48.572;7.838;2022-10-16T14:07:24;26.90;99.90
14192;DHT22;7177;48.572;7.838;2022-10-16T14:09:51;27.20;99.90
14192;DHT22;7177;48.572;7.838;2022-10-16T14:12:17;27.30;99.90
14192;DHT22;7177;48.572;7.838;2022-10-16T14:14:45;27.50;99.90
14192;DHT22;7177;48.572;7.838;2022-10-16T14:17:32;27.50;99.90
14192;DHT22;7177;48.572;7.838;2022-10-16T14:19:59;27.50;99.90
14192;DHT22;7177;48.572;7.838;2022-10-16T14:22:37;27.30;99.90
14192;DHT22;7177;48.572;7.838;2022-10-16T14:25:25;27.30;99.90
14192;DHT22;7177;48.572;7.838;2022-10-16T14:30:51;27.60;99.90
14192;DHT22;7177;48.572;7.838;2022-10-16T14:36:05;27.50;99.90
14192;DHT22;7177;48.572;7.838;2022-10-16T14:38:36;27.70;99.90
14192;DHT22;7177;48.572;7.838;2022-10-16T14:41:03;27.70;99.90
14192;DHT22;7177;48.572;7.838;2022-10-16T14:43:33;27.80;99.90
14192;DHT22;7177;48.572;7.838;2022-10-16T14:46:00;27.90;99.90
14192;DHT22;7177;48.572;7.838;2022-10-16T14:48:26;27.90;99.90
14192;DHT22;7177;48.572;7.838;2022-10-16T14:50:52;27.90;99.90
14192;DHT22;7177;48.572;7.838;2022-10-16T14:53:18;27.70;99.90
14192;DHT22;7177;48.572;7.838;2022-10-16T14:55:44;27.30;99.90
14192;DHT22;7177;48.572;7.838;2022-10-16T14:58:19;27.00;99.90
14192;DHT22;7177;48.572;7.838;2022-10-16T15:00:45;26.90;99.90
14192;DHT22;7177;48.572;7.838;2022-10-16T15:03:11;26.90;99.90
14192;DHT22;7177;48.572;7.838;2022-10-16T15:05:36;26.80;99.90
14192;DHT22;7177;48.572;7.838;2022-10-16T15:08:02;26.80;99.90
14192;DHT22;7177;48.572;7.838;2022-10-16T15:10:30;26.80;99.90
14192;DHT22;7177;48.572;7.838;2022-10-16T15:12:57;26.90;99.90
14192;DHT22;7177;48.572;7.838;2022-10-16T15:17:48;26.90;99.90
14192;DHT22;7177;48.572;7.838;2022-10-16T15:20:17;26.60;99.90
14192;DHT22;7177;48.572;7.838;2022-10-16T15:22:42;26.10;99.90
14192;DHT22;7177;48.572;7.838;2022-10-16T15:27:54;25.20;99.90
14192;DHT22;7177;48.572;7.838;2022-10-16T15:30:20;24.90;99.90
14192;DHT22;7177;48.572;7.838;2022-10-16T15:32:46;24.80;99.90
14192;DHT22;7177;48.572;7.838;2022-10-16T15:35:11;24.60;99.90
14192;DHT22;7177;48.572;7.838;2022-10-16T15:37:37;24.40;99.90
14192;DHT22;7177;48.572;7.838;2022-10-16T15:40:03;24.20;99.90
14192;DHT22;7177;48.572;7.838;2022-10-16T15:42:28;24.10;99.90
14192;DHT22;7177;48.572;7.838;2022-10-16T15:44:54;24.00;99.90
14192;DHT22;7177;48.572;7.838;2022-10-16T15:47:19;23.90;99.90
14192;DHT22;7177;48.572;7.838;2022-10-16T15:49:45;23.80;99.90
14192;DHT22;7177;48.572;7.838;2022-10-16T15:52:11;23.60;99.90
14192;DHT22;7177;48.572;7.838;2022-10-16T15:54:37;23.50;99.90
14192;DHT22;7177;48.572;7.838;2022-10-16T15:57:02;23.40;99.90
14192;DHT22;7177;48.572;7.838;2022-10-16T15:59:28;23.20;99.90
14192;DHT22;7177;48.572;7.838;2022-10-16T16:01:53;23.10;99.90
14192;DHT22;7177;48.572;7.838;2022-10-16T16:04:19;23.00;99.90
14192;DHT22;7177;48.572;7.838;2022-10-16T16:06:44;22.90;99.90
14192;DHT22;7177;48.572;7.838;2022-10-16T16:09:12;22.80;99.90
14192;DHT22;7177;48.572;7.838;2022-10-16T16:11:37;22.70;99.90
14192;DHT22;7177;48.572;7.838;2022-10-16T16:14:09;22.70;99.90
14192;DHT22;7177;48.572;7.838;2022-10-16T16:16:36;22.50;99.90
14192;DHT22;7177;48.572;7.838;2022-10-16T16:19:04;22.40;99.90
14192;DHT22;7177;48.572;7.838;2022-10-16T16:21:32;22.30;99.90
14192;DHT22;7177;48.572;7.838;2022-10-16T16:23:58;22.20;99.90
14192;DHT22;7177;48.572;7.838;2022-10-16T16:26:28;22.10;99.90
14192;DHT22;7177;48.572;7.838;2022-10-16T16:28:59;21.80;99.90
14192;DHT22;7177;48.572;7.838;2022-10-16T16:31:26;21.80;99.90
14192;DHT22;7177;48.572;7.838;2022-10-16T16:33:53;21.70;99.90
14192;DHT22;7177;48.572;7.838;2022-10-16T16:36:19;21.60;99.90
14192;DHT22;7177;48.572;7.838;2022-10-16T16:38:45;21.50;99.90
14192;DHT22;7177;48.572;7.838;2022-10-16T16:41:19;21.40;99.90
14192;DHT22;7177;48.572;7.838;2022-10-16T16:43:45;21.20;99.90
14192;DHT22;7177;48.572;7.838;2022-10-16T16:46:12;21.20;99.90
14192;DHT22;7177;48.572;7.838;2022-10-16T16:48:38;21.10;99.90
14192;DHT22;7177;48.572;7.838;2022-10-16T16:51:05;20.90;99.90
14192;DHT22;7177;48.572;7.838;2022-10-16T16:53:33;20.90;99.90
14192;DHT22;7177;48.572;7.838;2022-10-16T16:56:03;20.70;99.90
14192;DHT22;7177;48.572;7.838;2022-10-16T16:58:29;20.60;99.90
14192;DHT22;7177;48.572;7.838;2022-10-16T17:00:55;20.50;99.90
14192;DHT22;7177;48.572;7.838;2022-10-16T17:03:21;20.40;99.90
14192;DHT22;7177;48.572;7.838;2022-10-16T17:08:25;20.20;99.90
14192;DHT22;7177;48.572;7.838;2022-10-16T17:10:50;20.10;99.90
14192;DHT22;7177;48.572;7.838;2022-10-16T17:13:28;20.00;99.90
14192;DHT22;7177;48.572;7.838;2022-10-16T17:15:54;19.90;99.90
14192;DHT22;7177;48.572;7.838;2022-10-16T17:18:21;19.80;99.90
14192;DHT22;7177;48.572;7.838;2022-10-16T17:20:49;19.70;99.90
14192;DHT22;7177;48.572;7.838;2022-10-16T17:23:15;19.70;99.90
14192;DHT22;7177;48.572;7.838;2022-10-16T17:25:42;19.70;99.90
14192;DHT22;7177;48.572;7.838;2022-10-16T17:28:09;19.60;99.90
14192;DHT22;7177;48.572;7.838;2022-10-16T17:30:40;19.60;99.90
14192;DHT22;7177;48.572;7.838;2022-10-16T17:33:06;19.60;99.90
14192;DHT22;7177;48.572;7.838;2022-10-16T17:35:37;19.50;99.90
14192;DHT22;7177;48.572;7.838;2022-10-16T17:38:03;19.30;99.90
14192;DHT22;7177;48.572;7.838;2022-10-16T17:40:28;19.30;99.90
14192;DHT22;7177;48.572;7.838;2022-10-16T17:42:54;19.20;99.90
14192;DHT22;7177;48.572;7.838;2022-10-16T17:45:19;19.20;99.90
14192;DHT22;7177;48.572;7.838;2022-10-16T17:47:45;19.20;99.90
14192;DHT22;7177;48.572;7.838;2022-10-16T17:50:10;19.20;99.90
14192;DHT22;7177;48.572;7.838;2022-10-16T17:52:36;19.20;99.90